sensor_id;sensor_type;location;lat;lon;timestamp;pressure;altitude;pressure_sealevel;temperature;humidity
21902;BME280;11115;46.038;14.612;2023-03-16T00:00:47;98598.81;;;-0.82;100.00
21902;BME280;11115;46.038;14.612;2023-03-16T00:03:23;98605.59;;;-0.73;100.00
21902;BME280;11115;46.038;14.612;2023-03-16T00:06:11;98610.06;;;-0.67;100.00
21902;BME280;11115;46.038;14.612;2023-03-16T00:08:39;98613.78;;;-0.14;100.00
21902;BME280;11115;46.038;14.612;2023-03-16T00:11:10;98602.88;;;0.21;100.00
21902;BME280;11115;46.038;14.612;2023-03-16T00:13:42;98600.06;;;0.56;100.00
21902;BME280;11115;46.038;14.612;2023-03-16T00:16:14;98591.38;;;0.30;100.00
21902;BME280;11115;46.038;14.612;2023-03-16T00:18:49;98605.22;;;0.29;100.00
21902;BME280;11115;46.038;14.612;2023-03-16T00:21:17;98611.09;;;0.49;100.00
21902;BME280;11115;46.038;14.612;2023-03-16T00:23:48;98609.56;;;0.82;100.00
21902;BME280;11115;46.038;14.612;2023-03-16T00:26:23;98613.63;;;0.68;100.00
21902;BME280;11115;46.038;14.612;2023-03-16T00:29:09;98611.56;;;0.46;100.00
21902;BME280;11115;46.038;14.612;2023-03-16T00:31:41;98607.75;;;0.87;100.00
21902;BME280;11115;46.038;14.612;2023-03-16T00:34:13;98604.63;;;0.79;100.00
21902;BME280;11115;46.038;14.612;2023-03-16T00:36:49;98613.31;;;0.52;100.00
21902;BME280;11115;46.038;14.612;2023-03-16T00:39:27;98619.25;;;0.49;100.00
21902;BME280;11115;46.038;14.612;2023-03-16T00:42:14;98617.28;;;0.33;100.00
21902;BME280;11115;46.038;14.612;2023-03-16T00:44:56;98620.41;;;0.53;100.00
21902;BME280;11115;46.038;14.612;2023-03-16T00:47:35;98628.63;;;0.42;100.00
21902;BME280;11115;46.038;14.612;2023-03-16T00:50:03;98625.59;;;0.15;100.00
21902;BME280;11115;46.038;14.612;2023-03-16T00:52:33;98632.66;;;0.39;100.00
21902;BME280;11115;46.038;14.612;2023-03-16T00:55:05;98627.75;;;0.53;100.00
21902;BME280;11115;46.038;14.612;2023-03-16T00:57:44;98632.78;;;0.33;100.00
21902;BME280;11115;46.038;14.612;2023-03-16T01:00:17;98624.41;;;0.11;100.00
21902;BME280;11115;46.038;14.612;2023-03-16T01:02:49;98563.25;;;0.25;100.00
21902;BME280;11115;46.038;14.612;2023-03-16T01:05:19;98634.31;;;0.40;100.00
21902;BME280;11115;46.038;14.612;2023-03-16T01:07:52;98639.19;;;0.15;100.00
21902;BME280;11115;46.038;14.612;2023-03-16T01:10:23;98645.09;;;0.12;100.00
21902;BME280;11115;46.038;14.612;2023-03-16T01:12:57;98645.31;;;0.45;100.00
21902;BME280;11115;46.038;14.612;2023-03-16T01:15:25;98637.28;;;0.39;100.00
21902;BME280;11115;46.038;14.612;2023-03-16T01:18:11;98614.84;;;0.08;100.00
21902;BME280;11115;46.038;14.612;2023-03-16T01:20:50;98633.59;;;0.33;100.00
21902;BME280;11115;46.038;14.612;2023-03-16T01:23:27;98633.97;;;0.13;100.00
21902;BME280;11115;46.038;14.612;2023-03-16T01:25:58;98639.66;;;0.12;100.00
21902;BME280;11115;46.038;14.612;2023-03-16T01:28:30;98632.94;;;0.66;100.00
21902;BME280;11115;46.038;14.612;2023-03-16T01:31:05;98626.97;;;0.81;100.00
21902;BME280;11115;46.038;14.612;2023-03-16T01:33:40;98624.94;;;0.59;100.00
21902;BME280;11115;46.038;14.612;2023-03-16T01:36:18;98625.38;;;0.56;100.00
21902;BME280;11115;46.038;14.612;2023-03-16T01:38:59;98617.25;;;0.45;100.00
21902;BME280;11115;46.038;14.612;2023-03-16T01:41:42;98628.25;;;0.38;100.00
21902;BME280;11115;46.038;14.612;2023-03-16T01:44:18;98620.75;;;0.69;100.00
21902;BME280;11115;46.038;14.612;2023-03-16T01:46:50;98619.97;;;0.85;100.00
21902;BME280;11115;46.038;14.612;2023-03-16T01:49:26;98607.69;;;0.82;100.00
21902;BME280;11115;46.038;14.612;2023-03-16T01:52:18;98621.75;;;1.08;100.00
21902;BME280;11115;46.038;14.612;2023-03-16T01:55:11;98634.00;;;0.65;100.00
21902;BME280;11115;46.038;14.612;2023-03-16T01:57:45;98630.28;;;0.83;100.00
21902;BME280;11115;46.038;14.612;2023-03-16T02:00:16;98638.50;;;1.00;100.00
21902;BME280;11115;46.038;14.612;2023-03-16T02:03:20;98625.22;;;0.75;100.00
21902;BME280;11115;46.038;14.612;2023-03-16T02:06:18;98636.66;;;0.48;100.00
21902;BME280;11115;46.038;14.612;2023-03-16T02:08:57;98635.25;;;0.34;100.00
21902;BME280;11115;46.038;14.612;2023-03-16T02:11:31;98623.34;;;0.23;100.00
21902;BME280;11115;46.038;14.612;2023-03-16T02:14:20;98647.41;;;0.95;100.00
21902;BME280;11115;46.038;14.612;2023-03-16T02:17:00;98651.06;;;1.01;100.00
21902;BME280;11115;46.038;14.612;2023-03-16T02:22:45;98653.91;;;0.94;100.00
21902;BME280;11115;46.038;14.612;2023-03-16T02:25:24;98667.84;;;0.81;100.00
21902;BME280;11115;46.038;14.612;2023-03-16T02:30:59;98671.13;;;0.43;100.00
21902;BME280;11115;46.038;14.612;2023-03-16T02:33:29;98663.66;;;0.90;100.00
21902;BME280;11115;46.038;14.612;2023-03-16T02:36:16;98646.41;;;0.73;100.00
21902;BME280;11115;46.038;14.612;2023-03-16T02:38:47;98651.19;;;0.94;100.00
21902;BME280;11115;46.038;14.612;2023-03-16T02:41:18;98666.72;;;0.94;100.00
21902;BME280;11115;46.038;14.612;2023-03-16T02:43:58;98675.28;;;0.85;100.00
21902;BME280;11115;46.038;14.612;2023-03-16T02:46:33;98669.31;;;0.60;100.00
21902;BME280;11115;46.038;14.612;2023-03-16T02:49:07;98675.94;;;0.52;100.00
21902;BME280;11115;46.038;14.612;2023-03-16T02:51:43;98674.03;;;0.53;100.00
21902;BME280;11115;46.038;14.612;2023-03-16T02:54:14;98674.81;;;0.77;100.00
21902;BME280;11115;46.038;14.612;2023-03-16T02:56:45;98661.81;;;0.67;100.00
21902;BME280;11115;46.038;14.612;2023-03-16T02:59:27;98681.16;;;0.94;100.00
21902;BME280;11115;46.038;14.612;2023-03-16T03:01:57;98680.97;;;0.72;100.00
21902;BME280;11115;46.038;14.612;2023-03-16T03:04:42;98683.75;;;0.49;100.00
21902;BME280;11115;46.038;14.612;2023-03-16T03:07:26;98658.44;;;0.48;100.00
21902;BME280;11115;46.038;14.612;2023-03-16T03:10:13;98660.56;;;0.46;100.00
21902;BME280;11115;46.038;14.612;2023-03-16T03:12:57;98661.28;;;0.42;100.00
21902;BME280;11115;46.038;14.612;2023-03-16T03:15:43;98675.38;;;0.90;100.00
21902;BME280;11115;46.038;14.612;2023-03-16T03:18:13;98682.16;;;1.16;100.00
21902;BME280;11115;46.038;14.612;2023-03-16T03:20:45;98651.53;;;0.57;100.00
21902;BME280;11115;46.038;14.612;2023-03-16T03:23:28;98689.41;;;0.71;100.00
21902;BME280;11115;46.038;14.612;2023-03-16T03:26:13;98701.19;;;1.00;100.00
21902;BME280;11115;46.038;14.612;2023-03-16T03:28:47;98702.09;;;0.65;100.00
21902;BME280;11115;46.038;14.612;2023-03-16T03:31:21;98708.69;;;0.57;100.00
21902;BME280;11115;46.038;14.612;2023-03-16T03:33:54;98695.75;;;0.76;100.00
21902;BME280;11115;46.038;14.612;2023-03-16T03:36:29;98725.31;;;0.96;100.00
21902;BME280;11115;46.038;14.612;2023-03-16T03:39:00;98699.97;;;0.32;100.00
21902;BME280;11115;46.038;14.612;2023-03-16T03:41:32;98720.56;;;0.63;100.00
21902;BME280;11115;46.038;14.612;2023-03-16T03:44:09;98718.66;;;0.64;100.00
21902;BME280;11115;46.038;14.612;2023-03-16T03:46:37;98720.72;;;0.21;100.00
21902;BME280;11115;46.038;14.612;2023-03-16T03:49:13;98721.16;;;0.18;100.00
21902;BME280;11115;46.038;14.612;2023-03-16T03:51:42;98722.34;;;0.46;100.00
21902;BME280;11115;46.038;14.612;2023-03-16T03:54:24;98723.88;;;0.30;100.00
21902;BME280;11115;46.038;14.612;2023-03-16T03:56:56;98731.09;;;0.13;100.00
21902;BME280;11115;46.038;14.612;2023-03-16T03:59:42;98730.75;;;0.21;100.00
21902;BME280;11115;46.038;14.612;2023-03-16T04:02:32;98741.66;;;0.21;100.00
21902;BME280;11115;46.038;14.612;2023-03-16T04:05:06;98750.03;;;0.08;100.00
21902;BME280;11115;46.038;14.612;2023-03-16T04:07:37;98747.81;;;0.40;100.00
21902;BME280;11115;46.038;14.612;2023-03-16T04:10:12;98740.78;;;0.79;100.00
21902;BME280;11115;46.038;14.612;2023-03-16T04:12:55;98751.78;;;0.72;100.00
21902;BME280;11115;46.038;14.612;2023-03-16T04:15:31;98757.47;;;0.71;100.00
21902;BME280;11115;46.038;14.612;2023-03-16T04:18:17;98763.38;;;0.09;100.00
21902;BME280;11115;46.038;14.612;2023-03-16T04:21:13;98742.00;;;0.59;100.00
21902;BME280;11115;46.038;14.612;2023-03-16T04:23:48;98744.00;;;0.29;100.00
21902;BME280;11115;46.038;14.612;2023-03-16T04:26:43;98753.06;;;-0.01;100.00
21902;BME280;11115;46.038;14.612;2023-03-16T04:29:38;98773.44;;;0.09;100.00
21902;BME280;11115;46.038;14.612;2023-03-16T04:32:13;98767.31;;;0.48;100.00
21902;BME280;11115;46.038;14.612;2023-03-16T04:35:09;98753.69;;;0.13;100.00
21902;BME280;11115;46.038;14.612;2023-03-16T04:38:06;98755.19;;;-0.03;100.00
21902;BME280;11115;46.038;14.612;2023-03-16T04:40:55;98782.53;;;0.03;100.00
21902;BME280;11115;46.038;14.612;2023-03-16T04:43:45;98781.72;;;0.14;100.00
21902;BME280;11115;46.038;14.612;2023-03-16T04:46:20;98718.56;;;0.23;100.00
21902;BME280;11115;46.038;14.612;2023-03-16T04:48:59;98783.75;;;0.53;100.00
21902;BME280;11115;46.038;14.612;2023-03-16T04:51:31;98782.94;;;0.29;100.00
21902;BME280;11115;46.038;14.612;2023-03-16T04:54:22;98782.56;;;0.26;100.00
21902;BME280;11115;46.038;14.612;2023-03-16T04:57:03;98773.47;;;0.32;100.00
21902;BME280;11115;46.038;14.612;2023-03-16T04:59:51;98778.41;;;0.12;100.00
21902;BME280;11115;46.038;14.612;2023-03-16T05:02:37;98774.00;;;-0.01;100.00
21902;BME280;11115;46.038;14.612;2023-03-16T05:05:08;98782.75;;;-0.11;100.00
21902;BME280;11115;46.038;14.612;2023-03-16T05:07:44;98780.91;;;-0.28;100.00
21902;BME280;11115;46.038;14.612;2023-03-16T05:10:18;98794.75;;;-0.30;100.00
21902;BME280;11115;46.038;14.612;2023-03-16T05:12:54;98804.31;;;-0.27;100.00
21902;BME280;11115;46.038;14.612;2023-03-16T05:15:25;98793.50;;;-0.04;100.00
21902;BME280;11115;46.038;14.612;2023-03-16T05:18:00;98800.44;;;0.34;100.00
21902;BME280;11115;46.038;14.612;2023-03-16T05:20:28;98797.59;;;0.52;100.00
21902;BME280;11115;46.038;14.612;2023-03-16T05:23:02;98795.22;;;0.32;100.00
21902;BME280;11115;46.038;14.612;2023-03-16T05:25:48;98810.66;;;-0.04;100.00
21902;BME280;11115;46.038;14.612;2023-03-16T05:28:22;98796.41;;;-0.29;100.00
21902;BME280;11115;46.038;14.612;2023-03-16T05:31:07;98814.44;;;-0.05;100.00
21902;BME280;11115;46.038;14.612;2023-03-16T05:33:59;98813.91;;;0.17;100.00
21902;BME280;11115;46.038;14.612;2023-03-16T05:36:30;98803.06;;;0.40;100.00
21902;BME280;11115;46.038;14.612;2023-03-16T05:39:08;98827.19;;;0.25;100.00
21902;BME280;11115;46.038;14.612;2023-03-16T05:41:43;98833.41;;;0.14;100.00
21902;BME280;11115;46.038;14.612;2023-03-16T05:44:44;98842.03;;;0.11;100.00
21902;BME280;11115;46.038;14.612;2023-03-16T05:47:33;98826.59;;;-0.19;100.00
21902;BME280;11115;46.038;14.612;2023-03-16T05:50:14;98853.56;;;-0.17;100.00
21902;BME280;11115;46.038;14.612;2023-03-16T05:52:49;98854.13;;;0.15;100.00
21902;BME280;11115;46.038;14.612;2023-03-16T05:55:24;98854.28;;;0.20;100.00
21902;BME280;11115;46.038;14.612;2023-03-16T05:57:59;98844.84;;;0.57;100.00
21902;BME280;11115;46.038;14.612;2023-03-16T06:00:34;98840.84;;;0.83;100.00
21902;BME280;11115;46.038;14.612;2023-03-16T06:03:17;98833.63;;;0.77;100.00
21902;BME280;11115;46.038;14.612;2023-03-16T06:05:47;98831.72;;;0.78;100.00
21902;BME280;11115;46.038;14.612;2023-03-16T06:08:50;98827.78;;;0.74;100.00
21902;BME280;11115;46.038;14.612;2023-03-16T06:11:23;98828.06;;;0.60;100.00
21902;BME280;11115;46.038;14.612;2023-03-16T06:13:55;98810.16;;;0.65;100.00
21902;BME280;11115;46.038;14.612;2023-03-16T06:16:42;98835.00;;;0.91;100.00
21902;BME280;11115;46.038;14.612;2023-03-16T06:19:18;98839.19;;;0.59;100.00
21902;BME280;11115;46.038;14.612;2023-03-16T06:21:54;98853.84;;;0.58;100.00
21902;BME280;11115;46.038;14.612;2023-03-16T06:24:29;98857.88;;;0.67;100.00
21902;BME280;11115;46.038;14.612;2023-03-16T06:27:06;98868.38;;;0.40;100.00
21902;BME280;11115;46.038;14.612;2023-03-16T06:29:50;98869.25;;;0.64;100.00
21902;BME280;11115;46.038;14.612;2023-03-16T06:32:26;98885.47;;;0.71;100.00
21902;BME280;11115;46.038;14.612;2023-03-16T06:35:13;98882.28;;;0.97;100.00
21902;BME280;11115;46.038;14.612;2023-03-16T06:37:49;98902.13;;;1.44;100.00
21902;BME280;11115;46.038;14.612;2023-03-16T06:40:51;98887.44;;;1.45;100.00
21902;BME280;11115;46.038;14.612;2023-03-16T06:43:27;98898.41;;;1.74;100.00
21902;BME280;11115;46.038;14.612;2023-03-16T06:46:00;98888.13;;;1.93;100.00
21902;BME280;11115;46.038;14.612;2023-03-16T06:48:31;98900.50;;;2.12;100.00
21902;BME280;11115;46.038;14.612;2023-03-16T06:51:04;98899.00;;;2.04;100.00
21902;BME280;11115;46.038;14.612;2023-03-16T06:53:36;98845.00;;;2.06;100.00
21902;BME280;11115;46.038;14.612;2023-03-16T06:56:12;98895.75;;;2.19;100.00
21902;BME280;11115;46.038;14.612;2023-03-16T06:58:45;98877.28;;;2.26;100.00
21902;BME280;11115;46.038;14.612;2023-03-16T07:01:20;98907.66;;;2.75;100.00
21902;BME280;11115;46.038;14.612;2023-03-16T07:03:53;98903.81;;;2.59;100.00
21902;BME280;11115;46.038;14.612;2023-03-16T07:06:27;98912.50;;;3.07;100.00
21902;BME280;11115;46.038;14.612;2023-03-16T07:08:56;98909.22;;;2.71;100.00
21902;BME280;11115;46.038;14.612;2023-03-16T07:11:31;98900.91;;;2.66;100.00
21902;BME280;11115;46.038;14.612;2023-03-16T07:14:18;98917.50;;;2.76;100.00
21902;BME280;11115;46.038;14.612;2023-03-16T07:16:56;98921.97;;;3.16;100.00
21902;BME280;11115;46.038;14.612;2023-03-16T07:19:28;98924.69;;;3.16;100.00
21902;BME280;11115;46.038;14.612;2023-03-16T07:22:12;98857.53;;;2.36;100.00
21902;BME280;11115;46.038;14.612;2023-03-16T07:24:41;98915.34;;;3.12;100.00
21902;BME280;11115;46.038;14.612;2023-03-16T07:27:11;98913.19;;;3.52;100.00
21902;BME280;11115;46.038;14.612;2023-03-16T07:29:46;98890.94;;;3.27;100.00
21902;BME280;11115;46.038;14.612;2023-03-16T07:32:21;98904.59;;;3.65;100.00
21902;BME280;11115;46.038;14.612;2023-03-16T07:34:49;98905.94;;;3.85;100.00
21902;BME280;11115;46.038;14.612;2023-03-16T07:37:19;98870.75;;;3.72;100.00
21902;BME280;11115;46.038;14.612;2023-03-16T07:40:03;98897.03;;;3.94;100.00
21902;BME280;11115;46.038;14.612;2023-03-16T07:42:38;98899.13;;;4.09;100.00
21902;BME280;11115;46.038;14.612;2023-03-16T07:45:26;98896.94;;;4.11;100.00
21902;BME280;11115;46.038;14.612;2023-03-16T07:47:57;98891.47;;;4.11;100.00
21902;BME280;11115;46.038;14.612;2023-03-16T07:50:50;98904.75;;;4.51;100.00
21902;BME280;11115;46.038;14.612;2023-03-16T07:53:21;98900.56;;;4.71;100.00
21902;BME280;11115;46.038;14.612;2023-03-16T07:56:17;98896.31;;;4.90;100.00
21902;BME280;11115;46.038;14.612;2023-03-16T07:58:52;98893.34;;;4.97;100.00
21902;BME280;11115;46.038;14.612;2023-03-16T08:01:32;98893.63;;;4.95;100.00
21902;BME280;11115;46.038;14.612;2023-03-16T08:04:10;98889.19;;;4.89;100.00
21902;BME280;11115;46.038;14.612;2023-03-16T08:06:53;98890.81;;;4.85;100.00
21902;BME280;11115;46.038;14.612;2023-03-16T08:09:32;98895.44;;;5.64;100.00
21902;BME280;11115;46.038;14.612;2023-03-16T08:12:11;98895.38;;;5.54;100.00
21902;BME280;11115;46.038;14.612;2023-03-16T08:14:39;98885.38;;;5.85;100.00
21902;BME280;11115;46.038;14.612;2023-03-16T08:17:15;98891.59;;;5.65;100.00
21902;BME280;11115;46.038;14.612;2023-03-16T08:19:49;98885.47;;;5.47;100.00
21902;BME280;11115;46.038;14.612;2023-03-16T08:22:39;98893.78;;;5.63;100.00
21902;BME280;11115;46.038;14.612;2023-03-16T08:25:08;98889.44;;;5.72;100.00
21902;BME280;11115;46.038;14.612;2023-03-16T08:27:54;98888.00;;;6.27;100.00
21902;BME280;11115;46.038;14.612;2023-03-16T08:30:53;98882.03;;;6.65;100.00
21902;BME280;11115;46.038;14.612;2023-03-16T08:33:34;98890.84;;;6.98;100.00
21902;BME280;11115;46.038;14.612;2023-03-16T08:36:16;98894.38;;;6.43;100.00
21902;BME280;11115;46.038;14.612;2023-03-16T08:38:59;98881.50;;;6.79;100.00
21902;BME280;11115;46.038;14.612;2023-03-16T08:41:42;98896.31;;;6.93;100.00
21902;BME280;11115;46.038;14.612;2023-03-16T08:44:32;98888.66;;;6.95;100.00
21902;BME280;11115;46.038;14.612;2023-03-16T08:47:10;98903.19;;;7.11;100.00
21902;BME280;11115;46.038;14.612;2023-03-16T08:49:49;98911.16;;;7.53;100.00
21902;BME280;11115;46.038;14.612;2023-03-16T08:52:32;98904.47;;;7.69;100.00
21902;BME280;11115;46.038;14.612;2023-03-16T08:55:04;98901.38;;;7.96;100.00
21902;BME280;11115;46.038;14.612;2023-03-16T08:57:33;98903.88;;;7.93;100.00
21902;BME280;11115;46.038;14.612;2023-03-16T09:00:07;98901.59;;;8.05;100.00
21902;BME280;11115;46.038;14.612;2023-03-16T09:02:43;98907.66;;;8.07;100.00
21902;BME280;11115;46.038;14.612;2023-03-16T09:05:17;98885.06;;;8.10;100.00
21902;BME280;11115;46.038;14.612;2023-03-16T09:07:53;98905.84;;;8.41;100.00
21902;BME280;11115;46.038;14.612;2023-03-16T09:10:37;98875.31;;;8.22;100.00
21902;BME280;11115;46.038;14.612;2023-03-16T09:13:15;98891.72;;;7.99;100.00
21902;BME280;11115;46.038;14.612;2023-03-16T09:15:46;98904.47;;;7.74;100.00
21902;BME280;11115;46.038;14.612;2023-03-16T09:18:18;98864.38;;;7.38;100.00
21902;BME280;11115;46.038;14.612;2023-03-16T09:21:00;98890.16;;;7.77;97.98
21902;BME280;11115;46.038;14.612;2023-03-16T09:23:40;98901.59;;;8.05;94.76
21902;BME280;11115;46.038;14.612;2023-03-16T09:26:11;98900.63;;;8.40;99.32
21902;BME280;11115;46.038;14.612;2023-03-16T09:28:43;98890.34;;;8.56;91.36
21902;BME280;11115;46.038;14.612;2023-03-16T09:31:19;98892.19;;;8.16;78.95
21902;BME280;11115;46.038;14.612;2023-03-16T09:33:50;98907.88;;;8.20;79.73
21902;BME280;11115;46.038;14.612;2023-03-16T09:36:21;98898.66;;;8.50;79.57
21902;BME280;11115;46.038;14.612;2023-03-16T09:38:56;98914.72;;;8.77;76.76
21902;BME280;11115;46.038;14.612;2023-03-16T09:42:17;98913.75;;;8.58;71.88
21902;BME280;11115;46.038;14.612;2023-03-16T09:45:11;98907.63;;;8.17;74.36
21902;BME280;11115;46.038;14.612;2023-03-16T09:47:49;98890.63;;;7.95;75.11
21902;BME280;11115;46.038;14.612;2023-03-16T09:50:29;98906.59;;;7.98;73.10
21902;BME280;11115;46.038;14.612;2023-03-16T09:53:27;98908.81;;;7.96;73.09
21902;BME280;11115;46.038;14.612;2023-03-16T09:58:40;98932.28;;;8.52;71.91
21902;BME280;11115;46.038;14.612;2023-03-16T10:05:03;98914.69;;;8.82;74.63
21902;BME280;11115;46.038;14.612;2023-03-16T10:16:40;98930.78;;;9.04;69.81
21902;BME280;11115;46.038;14.612;2023-03-16T10:19:35;98932.44;;;9.39;71.36
21902;BME280;11115;46.038;14.612;2023-03-16T10:22:41;98933.06;;;9.31;77.64
21902;BME280;11115;46.038;14.612;2023-03-16T10:25:31;98939.84;;;9.44;72.93
21902;BME280;11115;46.038;14.612;2023-03-16T10:28:02;98930.81;;;9.62;72.19
21902;BME280;11115;46.038;14.612;2023-03-16T10:30:33;98934.66;;;9.03;69.25
21902;BME280;11115;46.038;14.612;2023-03-16T10:33:32;98930.72;;;9.15;73.86
21902;BME280;11115;46.038;14.612;2023-03-16T10:39:14;98941.31;;;8.58;72.34
21902;BME280;11115;46.038;14.612;2023-03-16T10:41:56;98942.47;;;9.25;74.60
21902;BME280;11115;46.038;14.612;2023-03-16T10:44:27;98939.66;;;9.64;75.04
21902;BME280;11115;46.038;14.612;2023-03-16T10:47:22;98935.13;;;10.26;78.68
21902;BME280;11115;46.038;14.612;2023-03-16T10:49:55;98915.75;;;10.26;70.22
21902;BME280;11115;46.038;14.612;2023-03-16T10:52:39;98931.78;;;10.48;69.92
21902;BME280;11115;46.038;14.612;2023-03-16T10:55:31;98931.81;;;10.24;63.98
21902;BME280;11115;46.038;14.612;2023-03-16T10:58:00;98936.38;;;10.10;63.59
21902;BME280;11115;46.038;14.612;2023-03-16T11:00:40;98938.31;;;10.33;63.78
21902;BME280;11115;46.038;14.612;2023-03-16T11:03:30;98924.44;;;10.76;64.97
21902;BME280;11115;46.038;14.612;2023-03-16T11:06:06;98927.91;;;10.01;60.23
21902;BME280;11115;46.038;14.612;2023-03-16T11:08:38;98927.50;;;10.37;61.86
21902;BME280;11115;46.038;14.612;2023-03-16T11:11:17;98920.72;;;10.86;60.62
21902;BME280;11115;46.038;14.612;2023-03-16T11:13:48;98924.50;;;11.09;60.18
21902;BME280;11115;46.038;14.612;2023-03-16T11:19:27;98916.28;;;11.04;58.82
21902;BME280;11115;46.038;14.612;2023-03-16T11:22:15;98919.75;;;11.28;59.43
21902;BME280;11115;46.038;14.612;2023-03-16T11:25:05;98909.19;;;10.79;58.37
21902;BME280;11115;46.038;14.612;2023-03-16T11:33:41;98910.03;;;12.32;64.77
21902;BME280;11115;46.038;14.612;2023-03-16T11:39:06;98898.25;;;11.85;56.15
21902;BME280;11115;46.038;14.612;2023-03-16T11:42:22;98904.50;;;12.04;52.92
21902;BME280;11115;46.038;14.612;2023-03-16T11:45:18;98899.59;;;11.55;51.49
21902;BME280;11115;46.038;14.612;2023-03-16T11:48:10;98890.53;;;12.23;51.83
21902;BME280;11115;46.038;14.612;2023-03-16T11:51:03;98886.22;;;12.03;49.54
21902;BME280;11115;46.038;14.612;2023-03-16T11:56:53;98876.38;;;11.83;45.88
21902;BME280;11115;46.038;14.612;2023-03-16T12:06:01;98876.31;;;13.33;44.90
21902;BME280;11115;46.038;14.612;2023-03-16T12:11:28;98859.47;;;14.09;45.34
21902;BME280;11115;46.038;14.612;2023-03-16T12:14:27;98853.78;;;13.74;43.21
21902;BME280;11115;46.038;14.612;2023-03-16T12:17:05;98861.31;;;12.75;42.56
21902;BME280;11115;46.038;14.612;2023-03-16T12:19:57;98856.97;;;13.50;46.75
21902;BME280;11115;46.038;14.612;2023-03-16T12:25:13;98841.59;;;14.01;45.67
21902;BME280;11115;46.038;14.612;2023-03-16T12:27:54;98836.16;;;13.48;43.08
21902;BME280;11115;46.038;14.612;2023-03-16T12:39:27;98820.41;;;14.31;47.19
21902;BME280;11115;46.038;14.612;2023-03-16T12:45:31;98822.00;;;14.15;45.68
21902;BME280;11115;46.038;14.612;2023-03-16T12:48:25;98820.28;;;12.50;45.11
21902;BME280;11115;46.038;14.612;2023-03-16T12:51:13;98818.28;;;13.31;50.05
21902;BME280;11115;46.038;14.612;2023-03-16T12:53:54;98821.88;;;14.28;48.52
21902;BME280;11115;46.038;14.612;2023-03-16T12:56:44;98811.78;;;14.76;49.19
21902;BME280;11115;46.038;14.612;2023-03-16T12:59:22;98818.97;;;14.77;41.80
21902;BME280;11115;46.038;14.612;2023-03-16T13:01:57;98815.63;;;12.59;41.32
21902;BME280;11115;46.038;14.612;2023-03-16T13:04:38;98812.25;;;12.12;43.99
21902;BME280;11115;46.038;14.612;2023-03-16T13:07:22;98806.25;;;11.97;44.20
21902;BME280;11115;46.038;14.612;2023-03-16T13:10:04;98805.13;;;11.84;43.10
21902;BME280;11115;46.038;14.612;2023-03-16T13:12:43;98807.97;;;12.06;43.93
21902;BME280;11115;46.038;14.612;2023-03-16T13:15:25;98804.31;;;11.83;43.00
21902;BME280;11115;46.038;14.612;2023-03-16T13:23:24;98806.91;;;11.34;43.00
21902;BME280;11115;46.038;14.612;2023-03-16T13:26:14;98807.75;;;11.48;44.63
21902;BME280;11115;46.038;14.612;2023-03-16T13:28:53;98787.53;;;11.47;44.87
21902;BME280;11115;46.038;14.612;2023-03-16T13:31:35;98799.44;;;12.17;43.90
21902;BME280;11115;46.038;14.612;2023-03-16T13:34:12;98809.34;;;12.31;40.63
21902;BME280;11115;46.038;14.612;2023-03-16T13:36:46;98803.25;;;12.65;40.68
21902;BME280;11115;46.038;14.612;2023-03-16T13:39:29;98801.63;;;12.87;42.87
21902;BME280;11115;46.038;14.612;2023-03-16T13:42:17;98791.91;;;14.08;40.83
21902;BME280;11115;46.038;14.612;2023-03-16T13:44:55;98795.91;;;14.68;42.96
21902;BME280;11115;46.038;14.612;2023-03-16T13:47:27;98791.13;;;14.77;42.19
21902;BME280;11115;46.038;14.612;2023-03-16T13:49:58;98784.75;;;14.85;45.36
21902;BME280;11115;46.038;14.612;2023-03-16T13:52:42;98789.69;;;15.35;40.75
21902;BME280;11115;46.038;14.612;2023-03-16T13:55:22;98786.03;;;14.36;38.11
21902;BME280;11115;46.038;14.612;2023-03-16T13:57:56;98786.41;;;14.69;38.62
21902;BME280;11115;46.038;14.612;2023-03-16T14:00:35;98786.53;;;15.62;41.57
21902;BME280;11115;46.038;14.612;2023-03-16T14:03:15;98779.34;;;15.44;38.02
21902;BME280;11115;46.038;14.612;2023-03-16T14:05:44;98775.31;;;15.24;41.64
21902;BME280;11115;46.038;14.612;2023-03-16T14:08:28;98781.88;;;16.25;38.98
21902;BME280;11115;46.038;14.612;2023-03-16T14:11:14;98778.59;;;16.02;38.68
21902;BME280;11115;46.038;14.612;2023-03-16T14:13:53;98771.91;;;18.82;40.02
21902;BME280;11115;46.038;14.612;2023-03-16T14:16:24;98769.59;;;20.07;34.50
21902;BME280;11115;46.038;14.612;2023-03-16T14:19:06;98769.41;;;22.19;31.10
21902;BME280;11115;46.038;14.612;2023-03-16T14:21:43;98766.84;;;22.10;29.53
21902;BME280;11115;46.038;14.612;2023-03-16T14:24:44;98772.13;;;24.24;29.89
21902;BME280;11115;46.038;14.612;2023-03-16T14:30:12;98766.13;;;22.73;27.38
21902;BME280;11115;46.038;14.612;2023-03-16T14:33:02;98735.03;;;23.74;26.15
21902;BME280;11115;46.038;14.612;2023-03-16T14:35:41;98768.44;;;23.69;25.67
21902;BME280;11115;46.038;14.612;2023-03-16T14:38:38;98767.44;;;22.80;26.40
21902;BME280;11115;46.038;14.612;2023-03-16T14:41:42;98767.03;;;22.51;25.71
21902;BME280;11115;46.038;14.612;2023-03-16T14:44:23;98770.22;;;21.97;24.75
21902;BME280;11115;46.038;14.612;2023-03-16T14:47:02;98760.38;;;21.18;24.74
21902;BME280;11115;46.038;14.612;2023-03-16T14:49:40;98760.44;;;21.64;25.06
21902;BME280;11115;46.038;14.612;2023-03-16T14:52:32;98766.53;;;22.16;24.81
21902;BME280;11115;46.038;14.612;2023-03-16T14:55:15;98764.50;;;20.12;26.14
21902;BME280;11115;46.038;14.612;2023-03-16T14:57:47;98769.66;;;18.88;28.63
21902;BME280;11115;46.038;14.612;2023-03-16T15:00:21;98767.63;;;19.60;27.14
21902;BME280;11115;46.038;14.612;2023-03-16T15:03:15;98752.78;;;16.89;30.55
21902;BME280;11115;46.038;14.612;2023-03-16T15:05:56;98762.91;;;19.64;26.38